Time;durP1;ratioP1;P1;durP2;ratioP2;P2;SDS_P1;SDS_P2;PMS_P1;PMS_P2;Temp;Humidity;BMP_temperature;BMP_pressure;BME280_temperature;BME280_humidity;BME280_pressure;Samples;Min_cycle;Max_cycle;Signal;HPM_P1;HPM_P2
2021/09/21 00:01:38;;;;;;;5.97;4.18;;;12.80;99.90;;;;;;4970408;28;20026;-59
2021/09/21 00:04:04;;;;;;;9.07;4.30;;;12.80;99.90;;;;;;4966822;28;20030;-57
2021/09/21 00:06:29;;;;;;;10.50;5.82;;;12.80;99.90;;;;;;4967908;28;20475;-59
2021/09/21 00:08:55;;;;;;;11.68;4.63;;;12.80;99.90;;;;;;4965486;28;20030;-55
2021/09/21 00:11:21;;;;;;;4.63;3.95;;;12.80;99.90;;;;;;4972402;28;20045;-57
2021/09/21 00:13:47;;;;;;;6.25;4.38;;;12.80;99.90;;;;;;4965405;28;20501;-57
2021/09/21 00:16:13;;;;;;;5.82;4.47;;;12.80;99.90;;;;;;4971337;28;20022;-60
2021/09/21 00:18:39;;;;;;;9.43;4.97;;;12.90;99.90;;;;;;4970986;28;20039;-56
2021/09/21 00:21:05;;;;;;;6.15;4.20;;;12.80;99.90;;;;;;4967543;28;20031;-53
2021/09/21 00:23:31;;;;;;;9.23;4.45;;;12.80;99.90;;;;;;4969167;28;20033;-58
2021/09/21 00:25:57;;;;;;;8.45;4.78;;;12.70;99.90;;;;;;4972170;28;20414;-59
2021/09/21 00:28:23;;;;;;;9.10;4.53;;;12.70;99.90;;;;;;4966149;28;20031;-58
2021/09/21 00:30:50;;;;;;;7.53;4.70;;;12.70;99.90;;;;;;4968244;28;20019;-55
2021/09/21 00:33:20;;;;;;;6.03;4.00;;;12.70;99.90;;;;;;4966788;28;20109;-58
2021/09/21 00:35:48;;;;;;;6.28;4.70;;;12.60;99.90;;;;;;4970609;28;20497;-57
2021/09/21 00:38:15;;;;;;;9.82;4.80;;;12.60;99.90;;;;;;4962610;28;20035;-58
2021/09/21 00:40:43;;;;;;;10.73;5.03;;;12.70;99.90;;;;;;4969719;28;20102;-56
2021/09/21 00:43:09;;;;;;;7.82;5.28;;;12.60;99.90;;;;;;4969217;28;20019;-58
2021/09/21 00:45:34;;;;;;;7.95;5.35;;;12.60;99.90;;;;;;4984825;28;20045;-58
2021/09/21 00:48:00;;;;;;;13.15;5.80;;;12.60;99.90;;;;;;4969916;28;20658;-54
2021/09/21 00:50:28;;;;;;;7.22;4.80;;;12.60;99.90;;;;;;4968658;28;20608;-58
2021/09/21 00:52:55;;;;;;;6.95;5.10;;;12.60;99.90;;;;;;4971342;28;20067;-57
2021/09/21 00:55:21;;;;;;;5.75;4.72;;;12.60;99.90;;;;;;4969673;28;20830;-59
2021/09/21 00:57:47;;;;;;;7.47;5.20;;;12.60;99.90;;;;;;4969047;28;20039;-58
2021/09/21 01:00:16;;;;;;;6.85;5.00;;;12.60;99.90;;;;;;4963442;28;20023;-59
2021/09/21 01:02:42;;;;;;;9.45;5.25;;;12.50;99.90;;;;;;4968324;28;20030;-58
2021/09/21 01:05:09;;;;;;;8.18;5.43;;;12.60;99.90;;;;;;4968326;28;20031;-56
2021/09/21 01:07:39;;;;;;;8.55;4.43;;;12.60;99.90;;;;;;4970012;28;20026;-56
2021/09/21 01:10:11;;;;;;;11.45;4.32;;;12.60;99.90;;;;;;4970703;28;21919;-59
2021/09/21 01:12:37;;;;;;;7.85;4.70;;;12.50;99.90;;;;;;4962902;28;20046;-59
2021/09/21 01:15:05;;;;;;;7.38;4.97;;;12.50;99.90;;;;;;4965996;28;20019;-57
2021/09/21 01:17:30;;;;;;;7.32;5.20;;;12.50;99.90;;;;;;4967597;28;20074;-58
2021/09/21 01:19:56;;;;;;;5.57;4.28;;;12.50;99.90;;;;;;4968155;28;20034;-58
2021/09/21 01:22:21;;;;;;;7.45;4.55;;;12.50;99.90;;;;;;4970264;28;22137;-56
2021/09/21 01:24:47;;;;;;;7.07;4.72;;;12.40;99.90;;;;;;4970725;28;20434;-57
2021/09/21 01:27:13;;;;;;;7.03;4.05;;;12.40;99.90;;;;;;4969100;28;20558;-57
2021/09/21 01:29:39;;;;;;;6.82;4.38;;;12.40;99.90;;;;;;4970994;28;20031;-57
2021/09/21 01:32:05;;;;;;;5.78;4.40;;;12.40;99.90;;;;;;4964134;28;20074;-58
2021/09/21 01:34:34;;;;;;;8.48;5.15;;;12.40;99.90;;;;;;4968152;28;20022;-55
2021/09/21 01:37:00;;;;;;;6.65;3.75;;;12.40;99.90;;;;;;4971059;28;20411;-58
2021/09/21 01:39:26;;;;;;;6.38;4.15;;;12.40;99.90;;;;;;4950177;28;20134;-59
2021/09/21 01:41:51;;;;;;;10.00;3.70;;;12.40;99.90;;;;;;4970553;28;20660;-59
2021/09/21 01:44:18;;;;;;;6.93;4.25;;;12.40;99.90;;;;;;4970718;28;20089;-56
2021/09/21 01:46:45;;;;;;;5.72;3.35;;;12.40;99.90;;;;;;4968661;28;20121;-58
2021/09/21 01:49:16;;;;;;;5.97;3.33;;;12.30;99.90;;;;;;4969586;28;20031;-58
2021/09/21 01:51:51;;;;;;;5.90;3.75;;;12.30;99.90;;;;;;4967585;28;20058;-61
2021/09/21 01:54:31;;;;;;;7.45;3.75;;;12.40;99.90;;;;;;4970031;28;20041;-59
2021/09/21 01:59:41;;;;;;;8.93;3.35;;;12.30;99.90;;;;;;4964505;28;20039;-60
2021/09/21 02:02:07;;;;;;;5.50;3.50;;;12.30;99.90;;;;;;4968458;28;20027;-60
2021/09/21 02:04:32;;;;;;;7.07;3.47;;;12.30;99.90;;;;;;4960430;28;20038;-60
2021/09/21 02:06:58;;;;;;;4.95;3.78;;;12.30;99.90;;;;;;4965864;28;20779;-58
2021/09/21 02:09:23;;;;;;;4.53;3.67;;;12.30;99.90;;;;;;4968903;28;20030;-60
2021/09/21 02:11:49;;;;;;;6.93;4.78;;;12.30;99.90;;;;;;4970043;28;20027;-58
2021/09/21 02:14:15;;;;;;;7.00;3.58;;;12.30;99.90;;;;;;4969505;28;20025;-59
2021/09/21 02:16:42;;;;;;;7.95;4.45;;;12.30;99.90;;;;;;4970068;28;20397;-59
2021/09/21 02:19:08;;;;;;;5.25;3.72;;;12.30;99.90;;;;;;4966943;28;20114;-58
2021/09/21 02:21:34;;;;;;;5.72;3.78;;;12.30;99.90;;;;;;4963444;28;20102;-59
2021/09/21 02:24:00;;;;;;;6.60;3.92;;;12.30;99.90;;;;;;4961949;28;20035;-57
2021/09/21 02:26:27;;;;;;;7.18;4.05;;;12.30;99.90;;;;;;4967950;28;20046;-57
2021/09/21 02:28:52;;;;;;;5.25;3.80;;;12.30;99.90;;;;;;4966518;28;20134;-59
2021/09/21 02:31:19;;;;;;;8.70;3.85;;;12.20;99.90;;;;;;4963929;28;20103;-58
2021/09/21 02:33:45;;;;;;;6.78;3.90;;;12.20;99.90;;;;;;4967883;28;20081;-60
2021/09/21 02:36:11;;;;;;;5.53;3.90;;;12.20;99.90;;;;;;4967665;28;20023;-58
2021/09/21 02:38:36;;;;;;;4.20;3.50;;;12.20;99.90;;;;;;4972004;28;20027;-57
2021/09/21 02:41:04;;;;;;;6.82;4.30;;;12.20;99.90;;;;;;4972363;28;20034;-58
2021/09/21 02:43:30;;;;;;;8.43;4.50;;;12.20;99.90;;;;;;4968511;28;20549;-59
2021/09/21 02:46:00;;;;;;;6.88;4.32;;;12.20;99.90;;;;;;4968589;28;20130;-58
2021/09/21 02:48:30;;;;;;;6.38;4.32;;;12.10;99.90;;;;;;4973268;28;20030;-58
2021/09/21 02:50:55;;;;;;;7.60;4.20;;;12.10;99.90;;;;;;4972141;28;20525;-56
2021/09/21 02:53:21;;;;;;;7.10;4.18;;;12.00;99.90;;;;;;4956649;28;20027;-58
2021/09/21 02:55:47;;;;;;;10.00;4.20;;;12.00;99.90;;;;;;4972794;28;20022;-58
2021/09/21 02:58:13;;;;;;;6.85;4.95;;;12.00;99.90;;;;;;4968020;28;20118;-58
2021/09/21 03:00:40;;;;;;;7.72;4.50;;;11.90;99.90;;;;;;4966924;28;20039;-58
2021/09/21 03:03:07;;;;;;;6.32;4.00;;;11.90;99.90;;;;;;4953223;28;20027;-50
2021/09/21 03:05:39;;;;;;;8.02;4.45;;;11.90;99.90;;;;;;4987059;28;20058;-58
2021/09/21 03:08:09;;;;;;;9.43;4.05;;;11.90;99.90;;;;;;4968270;28;20023;-59
2021/09/21 03:10:51;;;;;;;7.50;4.45;;;11.80;99.90;;;;;;4966570;28;20062;-59
2021/09/21 03:18:45;;;;;;;6.07;3.85;;;11.70;99.90;;;;;;4966851;28;19917;-59
2021/09/21 03:21:10;;;;;;;6.25;4.05;;;11.70;99.90;;;;;;4964860;28;20706;-55
2021/09/21 03:23:36;;;;;;;9.70;4.32;;;11.60;99.90;;;;;;4973490;28;20487;-57
2021/09/21 03:26:01;;;;;;;6.50;4.53;;;11.60;99.90;;;;;;4967240;28;20110;-53
2021/09/21 03:28:27;;;;;;;10.63;4.85;;;11.50;99.90;;;;;;4963116;28;20026;-59
2021/09/21 03:30:53;;;;;;;7.80;4.95;;;11.40;99.90;;;;;;4963474;28;20550;-53
2021/09/21 03:33:18;;;;;;;6.20;4.50;;;11.30;99.90;;;;;;4965160;28;20498;-58
2021/09/21 03:35:44;;;;;;;8.98;4.50;;;11.30;99.90;;;;;;4970378;28;20022;-60
2021/09/21 03:38:10;;;;;;;8.55;4.75;;;11.30;99.90;;;;;;4970275;28;20530;-58
2021/09/21 03:40:36;;;;;;;7.68;4.78;;;11.20;99.90;;;;;;4963485;28;20085;-56
2021/09/21 03:43:01;;;;;;;7.13;4.78;;;11.20;99.90;;;;;;4969657;28;20446;-57
2021/09/21 03:45:27;;;;;;;5.78;4.50;;;11.20;99.90;;;;;;4962965;28;20044;-57
2021/09/21 03:47:54;;;;;;;8.00;4.65;;;11.00;99.90;;;;;;4969380;28;20031;-58
2021/09/21 03:50:20;;;;;;;7.60;4.80;;;11.00;99.90;;;;;;4962497;28;20561;-57
2021/09/21 03:52:46;;;;;;;7.45;4.82;;;11.00;99.90;;;;;;4972662;28;20030;-57
2021/09/21 03:55:12;;;;;;;5.82;4.60;;;10.90;99.90;;;;;;4965249;28;20131;-58
2021/09/21 03:57:37;;;;;;;6.07;4.78;;;10.90;99.90;;;;;;4964231;28;20200;-56
2021/09/21 04:00:05;;;;;;;9.10;4.75;;;10.80;99.90;;;;;;4972476;28;20058;-54
2021/09/21 04:02:30;;;;;;;9.35;5.30;;;10.70;99.90;;;;;;4967132;28;20031;-56
2021/09/21 04:04:56;;;;;;;9.43;5.32;;;10.70;99.90;;;;;;4972138;28;20061;-51
2021/09/21 04:07:21;;;;;;;9.48;5.45;;;10.50;99.90;;;;;;4971568;28;20030;-59
2021/09/21 04:09:47;;;;;;;11.02;6.25;;;10.50;99.90;;;;;;4970129;28;20038;-55
2021/09/21 04:12:12;;;;;;;15.65;5.97;;;10.40;99.90;;;;;;4966128;28;20045;-57
2021/09/21 04:14:38;;;;;;;8.65;5.60;;;10.30;99.90;;;;;;4966901;28;20037;-58
2021/09/21 04:17:04;;;;;;;7.55;5.85;;;10.20;99.90;;;;;;4969779;28;20022;-52
2021/09/21 04:19:29;;;;;;;7.00;5.38;;;10.20;99.90;;;;;;4967582;28;20019;-55
2021/09/21 04:21:55;;;;;;;8.13;5.50;;;10.10;99.90;;;;;;4970114;28;20035;-58
2021/09/21 04:24:20;;;;;;;10.45;6.30;;;10.00;99.90;;;;;;4966182;28;20082;-52
2021/09/21 04:26:46;;;;;;;8.50;6.00;;;9.90;99.90;;;;;;4970336;28;20058;-57
2021/09/21 04:29:11;;;;;;;7.95;6.07;;;10.00;99.90;;;;;;4967997;28;20037;-49
2021/09/21 04:31:41;;;;;;;12.70;4.88;;;9.90;99.90;;;;;;4970716;28;20038;-58
2021/09/21 04:34:07;;;;;;;10.75;4.60;;;9.90;99.90;;;;;;4962173;28;20047;-57
2021/09/21 04:36:33;;;;;;;9.40;4.72;;;9.90;99.90;;;;;;4969361;28;20101;-55
2021/09/21 04:38:58;;;;;;;13.27;4.13;;;9.90;99.90;;;;;;4963212;28;20111;-59
2021/09/21 04:41:24;;;;;;;6.63;4.30;;;9.80;99.90;;;;;;4970977;28;20125;-57
2021/09/21 04:43:50;;;;;;;9.50;4.95;;;9.70;99.90;;;;;;4969286;28;20549;-54
2021/09/21 04:46:15;;;;;;;6.15;4.05;;;9.70;99.90;;;;;;4969738;28;20030;-57
2021/09/21 04:48:41;;;;;;;7.55;4.30;;;9.70;99.90;;;;;;4969877;28;20049;-59
2021/09/21 04:51:07;;;;;;;9.75;4.40;;;9.70;99.90;;;;;;4968053;28;20063;-58
2021/09/21 04:53:33;;;;;;;7.05;4.35;;;9.60;99.90;;;;;;4971872;28;20545;-56
2021/09/21 04:55:58;;;;;;;12.68;4.18;;;9.60;99.90;;;;;;4970573;28;20043;-57
2021/09/21 04:58:24;;;;;;;5.28;4.15;;;9.50;99.90;;;;;;4969471;28;20019;-52
2021/09/21 05:00:49;;;;;;;5.45;3.90;;;9.50;99.90;;;;;;4969934;28;20379;-59
2021/09/21 05:03:15;;;;;;;9.48;4.78;;;9.50;99.90;;;;;;4952213;28;20035;-59
2021/09/21 05:05:41;;;;;;;6.20;4.45;;;9.40;99.90;;;;;;4969612;28;20446;-57
2021/09/21 05:08:07;;;;;;;8.43;4.60;;;9.40;99.90;;;;;;4969204;28;20031;-58
2021/09/21 05:10:32;;;;;;;8.57;4.68;;;9.30;99.90;;;;;;4970964;28;20081;-56
2021/09/21 05:12:58;;;;;;;9.00;4.50;;;9.30;99.90;;;;;;4966759;28;20039;-59
2021/09/21 05:15:25;;;;;;;23.08;6.47;;;9.20;99.90;;;;;;4964658;28;20671;-59
2021/09/21 05:17:51;;;;;;;5.55;4.40;;;9.10;99.90;;;;;;4969458;28;20062;-59
2021/09/21 05:20:16;;;;;;;6.65;5.13;;;9.10;99.90;;;;;;4969355;28;20090;-60
2021/09/21 05:22:42;;;;;;;7.57;5.40;;;9.10;99.90;;;;;;4969835;28;20585;-58
2021/09/21 05:25:09;;;;;;;9.25;5.40;;;9.10;99.90;;;;;;4965483;28;20050;-57
2021/09/21 05:27:35;;;;;;;10.73;5.60;;;9.10;99.90;;;;;;4962330;28;20027;-60
2021/09/21 05:30:00;;;;;;;13.25;6.03;;;9.10;99.90;;;;;;4969119;28;20659;-59
2021/09/21 05:32:26;;;;;;;9.43;6.00;;;9.10;99.90;;;;;;4971319;28;20054;-53
2021/09/21 05:34:52;;;;;;;14.32;5.88;;;9.00;99.90;;;;;;4971257;28;20394;-59
2021/09/21 05:37:17;;;;;;;8.20;5.75;;;8.90;99.90;;;;;;4968699;28;20521;-59
2021/09/21 05:39:43;;;;;;;11.13;6.47;;;8.90;99.90;;;;;;4962473;28;20027;-60
2021/09/21 05:42:09;;;;;;;13.25;7.00;;;8.90;99.90;;;;;;4963631;28;20041;-57
2021/09/21 05:44:34;;;;;;;12.73;5.55;;;8.80;99.90;;;;;;4963640;28;20098;-58
2021/09/21 05:47:00;;;;;;;8.10;5.13;;;8.80;99.90;;;;;;4967885;28;20039;-56
2021/09/21 05:49:25;;;;;;;15.50;5.70;;;8.80;99.90;;;;;;4964481;28;20035;-56
2021/09/21 05:51:51;;;;;;;10.82;6.40;;;8.80;99.90;;;;;;4961406;28;20035;-58
2021/09/21 05:54:16;;;;;;;10.95;5.43;;;8.90;99.90;;;;;;4965363;28;20175;-56
2021/09/21 05:56:42;;;;;;;10.05;5.82;;;8.90;99.90;;;;;;4960350;28;20050;-57
2021/09/21 05:59:08;;;;;;;12.35;5.30;;;8.90;99.90;;;;;;4970157;28;20031;-56
2021/09/21 06:01:35;;;;;;;9.07;5.05;;;8.90;99.90;;;;;;4963810;28;20035;-57
2021/09/21 06:04:02;;;;;;;9.80;5.47;;;8.90;99.90;;;;;;4961081;28;20039;-57
2021/09/21 06:06:28;;;;;;;13.15;5.35;;;9.00;99.90;;;;;;4970685;28;20019;-54
2021/09/21 06:08:53;;;;;;;13.27;5.82;;;9.00;99.90;;;;;;4966057;28;20057;-56
2021/09/21 06:11:28;;;;;;;10.82;5.00;;;9.00;99.90;;;;;;4965465;28;20034;-56
2021/09/21 06:13:57;;;;;;;12.07;5.30;;;9.10;99.90;;;;;;4965898;28;20042;-58
2021/09/21 06:16:22;;;;;;;9.05;5.40;;;9.10;99.90;;;;;;4972866;28;20151;-58
2021/09/21 06:18:48;;;;;;;6.82;5.05;;;9.10;99.90;;;;;;4955939;28;20110;-58
2021/09/21 06:21:14;;;;;;;11.13;5.22;;;9.10;99.90;;;;;;4963201;28;20035;-55
2021/09/21 06:23:40;;;;;;;7.68;5.65;;;9.20;99.90;;;;;;4954495;28;20131;-58
2021/09/21 06:26:05;;;;;;;9.73;5.28;;;9.20;99.90;;;;;;4997860;28;20038;-54
2021/09/21 06:28:31;;;;;;;13.13;5.10;;;9.30;99.90;;;;;;4985337;28;20118;-57
2021/09/21 06:30:57;;;;;;;7.88;4.85;;;9.40;99.90;;;;;;4997016;28;20572;-58
2021/09/21 06:33:24;;;;;;;7.72;4.95;;;9.50;99.90;;;;;;4997343;28;20545;-55
2021/09/21 06:35:50;;;;;;;14.02;4.22;;;9.80;99.90;;;;;;4994490;28;20023;-59
2021/09/21 06:38:16;;;;;;;5.78;4.88;;;10.20;99.90;;;;;;4997156;28;20037;-55
2021/09/21 06:40:41;;;;;;;7.45;4.22;;;10.70;99.90;;;;;;4995554;28;20022;-59
2021/09/21 06:43:07;;;;;;;6.38;3.30;;;11.30;99.90;;;;;;4996127;28;20034;-56
2021/09/21 06:45:32;;;;;;;8.07;3.78;;;11.90;99.90;;;;;;4993864;28;20402;-58
2021/09/21 06:47:58;;;;;;;9.43;3.58;;;12.80;99.90;;;;;;4986215;28;20516;-60
2021/09/21 06:50:24;;;;;;;6.20;3.83;;;13.60;99.90;;;;;;4993594;28;20053;-56
2021/09/21 06:52:49;;;;;;;9.80;3.50;;;14.50;99.90;;;;;;4999139;28;20035;-55
2021/09/21 06:55:16;;;;;;;7.43;3.53;;;14.90;99.90;;;;;;4991473;28;20019;-59
2021/09/21 06:57:52;;;;;;;5.97;3.25;;;15.30;99.90;;;;;;4995810;28;20105;-60
2021/09/21 07:00:19;;;;;;;7.15;3.17;;;16.10;98.50;;;;;;4989311;28;20030;-60
2021/09/21 07:02:52;;;;;;;4.43;2.92;;;16.80;97.30;;;;;;5000984;28;20030;-58
2021/09/21 07:05:17;;;;;;;6.13;2.75;;;18.20;94.20;;;;;;4991250;28;20074;-58
2021/09/21 07:07:44;;;;;;;5.80;2.55;;;19.10;92.80;;;;;;4997020;28;20023;-60
2021/09/21 07:10:11;;;;;;;4.35;2.40;;;19.80;91.70;;;;;;4993766;28;20026;-61
2021/09/21 07:12:37;;;;;;;8.32;2.95;;;19.60;90.20;;;;;;4995200;28;20025;-57
2021/09/21 07:15:02;;;;;;;7.45;3.00;;;18.50;91.60;;;;;;4991255;28;20038;-58
2021/09/21 07:17:28;;;;;;;7.95;3.22;;;17.70;92.10;;;;;;5001674;28;20022;-59
2021/09/21 07:19:54;;;;;;;8.60;3.17;;;16.70;93.00;;;;;;4997123;28;20077;-58
2021/09/21 07:22:19;;;;;;;7.07;3.30;;;15.90;94.60;;;;;;4968978;28;20109;-58
2021/09/21 07:24:45;;;;;;;8.35;3.58;;;15.30;95.40;;;;;;4995005;28;20030;-55
2021/09/21 07:27:10;;;;;;;6.13;3.30;;;14.70;96.60;;;;;;4994939;28;20029;-58
2021/09/21 07:29:36;;;;;;;8.30;3.10;;;14.40;97.40;;;;;;4996375;28;20025;-59
2021/09/21 07:32:02;;;;;;;4.95;2.95;;;14.40;98.50;;;;;;4995900;28;20030;-59
2021/09/21 07:34:29;;;;;;;3.88;2.88;;;14.50;98.30;;;;;;4998248;28;20025;-57
2021/09/21 07:36:54;;;;;;;6.82;3.42;;;14.70;98.90;;;;;;4998120;28;20048;-59
2021/09/21 07:39:20;;;;;;;7.35;3.20;;;15.20;97.50;;;;;;4998627;28;20034;-60
2021/09/21 07:41:46;;;;;;;5.68;3.92;;;15.60;96.50;;;;;;4992915;28;20044;-60
2021/09/21 07:44:11;;;;;;;7.93;2.88;;;15.90;96.90;;;;;;4995839;28;20490;-61
2021/09/21 07:46:38;;;;;;;4.40;2.45;;;16.30;95.90;;;;;;4988889;28;20146;-61
2021/09/21 07:49:03;;;;;;;7.13;2.90;;;17.10;95.30;;;;;;4992475;28;20022;-56
2021/09/21 07:51:29;;;;;;;9.20;2.45;;;17.70;94.80;;;;;;4996945;28;20069;-58
2021/09/21 07:53:54;;;;;;;5.32;2.60;;;18.40;93.90;;;;;;4993924;28;20022;-59
2021/09/21 07:56:21;;;;;;;6.95;2.58;;;18.80;93.20;;;;;;4990325;28;20026;-60
2021/09/21 07:58:46;;;;;;;5.20;2.30;;;19.50;91.50;;;;;;4984286;28;20050;-59
2021/09/21 08:01:12;;;;;;;9.55;2.83;;;20.20;90.30;;;;;;4993679;28;20065;-60
2021/09/21 08:03:38;;;;;;;3.88;2.08;;;20.00;90.30;;;;;;4992355;28;20085;-58
2021/09/21 08:06:03;;;;;;;5.70;2.55;;;20.20;88.20;;;;;;4990768;28;20589;-60
2021/09/21 08:08:29;;;;;;;4.10;2.40;;;20.50;87.60;;;;;;4987646;28;20171;-56
2021/09/21 08:10:54;;;;;;;4.45;2.20;;;21.20;84.30;;;;;;4989702;28;20105;-60
2021/09/21 08:13:20;;;;;;;3.10;2.20;;;21.30;83.90;;;;;;4992654;28;20019;-60
2021/09/21 08:15:45;;;;;;;3.95;2.60;;;20.90;84.90;;;;;;4994094;28;20077;-60
2021/09/21 08:18:11;;;;;;;3.83;2.30;;;20.70;84.30;;;;;;4994028;28;20030;-61
2021/09/21 08:20:38;;;;;;;11.25;2.70;;;20.50;85.80;;;;;;4986862;28;20081;-60
2021/09/21 08:23:03;;;;;;;4.28;2.55;;;20.90;84.70;;;;;;4969688;28;20560;-62
2021/09/21 08:25:29;;;;;;;10.63;2.42;;;20.80;84.60;;;;;;4971587;28;20046;-61
2021/09/21 08:27:55;;;;;;;6.03;2.45;;;20.80;84.50;;;;;;4968426;28;20031;-60
2021/09/21 08:30:20;;;;;;;2.72;2.35;;;21.00;83.30;;;;;;4973574;28;20038;-58
2021/09/21 08:32:47;;;;;;;6.18;2.63;;;21.40;81.50;;;;;;4977743;28;20038;-61
2021/09/21 08:35:13;;;;;;;5.28;2.53;;;21.40;82.40;;;;;;4975161;28;20026;-60
2021/09/21 08:37:38;;;;;;;3.90;2.00;;;21.50;81.90;;;;;;4972170;28;20027;-61
2021/09/21 08:40:05;;;;;;;6.55;2.33;;;22.30;80.60;;;;;;4966688;28;20027;-59
2021/09/21 08:42:31;;;;;;;5.90;2.50;;;21.90;80.80;;;;;;4978808;28;20036;-58
2021/09/21 08:44:56;;;;;;;5.07;2.63;;;22.00;80.50;;;;;;4974693;28;20038;-54
2021/09/21 08:47:22;;;;;;;6.20;2.75;;;21.20;79.90;;;;;;4969208;28;20034;-59
2021/09/21 08:49:48;;;;;;;4.88;2.45;;;20.40;82.90;;;;;;4971124;28;20482;-59
2021/09/21 08:52:14;;;;;;;4.75;2.42;;;20.80;82.00;;;;;;4972471;28;20683;-61
2021/09/21 08:54:39;;;;;;;6.18;2.33;;;21.50;82.30;;;;;;4971472;28;20031;-61
2021/09/21 08:57:05;;;;;;;10.98;2.63;;;21.20;80.20;;;;;;4976111;28;20030;-61
2021/09/21 08:59:33;;;;;;;5.55;2.53;;;20.90;81.40;;;;;;4970634;28;20398;-61
2021/09/21 09:02:07;;;;;;;3.55;2.67;;;20.40;80.90;;;;;;4971029;28;20065;-60
2021/09/21 09:04:32;;;;;;;5.80;2.30;;;20.00;84.80;;;;;;4971535;28;20117;-62
2021/09/21 09:06:59;;;;;;;7.68;2.40;;;20.30;85.20;;;;;;4972898;28;20567;-61
2021/09/21 09:09:27;;;;;;;4.50;2.22;;;20.90;82.50;;;;;;4978898;28;20382;-61
2021/09/21 09:11:55;;;;;;;4.45;2.47;;;21.40;84.00;;;;;;4972800;28;20030;-59
2021/09/21 09:14:36;;;;;;;5.28;2.55;;;22.40;77.60;;;;;;4973027;28;20035;-62
2021/09/21 09:17:05;;;;;;;6.93;2.33;;;22.40;76.00;;;;;;4976485;28;20462;-60
2021/09/21 09:19:38;;;;;;;3.90;1.88;;;22.30;75.60;;;;;;4975826;28;20026;-60
2021/09/21 09:22:11;;;;;;;4.72;2.40;;;21.30;76.70;;;;;;4975995;28;20080;-59
2021/09/21 09:24:47;;;;;;;5.10;2.35;;;20.30;79.10;;;;;;4972765;28;20042;-58
2021/09/21 09:27:13;;;;;;;6.32;2.38;;;19.10;81.50;;;;;;4974498;28;20101;-60
2021/09/21 09:29:55;;;;;;;4.18;2.25;;;18.50;83.90;;;;;;4972457;28;20493;-58
2021/09/21 09:32:21;;;;;;;5.15;2.33;;;18.30;85.80;;;;;;4971854;28;20552;-58
2021/09/21 09:34:46;;;;;;;5.80;2.90;;;18.00;84.90;;;;;;4973911;28;20034;-58
2021/09/21 09:37:12;;;;;;;4.03;2.58;;;18.10;86.10;;;;;;4967920;28;20501;-53
2021/09/21 09:39:38;;;;;;;7.50;3.22;;;17.90;87.80;;;;;;4967713;28;20019;-58
2021/09/21 09:42:04;;;;;;;4.65;2.33;;;18.00;86.50;;;;;;4967589;28;20081;-56
2021/09/21 09:44:32;;;;;;;7.20;2.17;;;18.00;88.80;;;;;;4970234;28;20177;-54
2021/09/21 09:47:03;;;;;;;3.53;2.08;;;18.30;88.60;;;;;;4964197;28;20035;-57
2021/09/21 09:49:36;;;;;;;5.35;2.70;;;18.60;87.40;;;;;;4977195;28;20038;-56
2021/09/21 09:52:16;;;;;;;7.00;4.15;;;19.10;85.50;;;;;;4970546;28;20035;-58
2021/09/21 09:54:44;;;;;;;4.75;1.85;;;20.10;81.30;;;;;;4967617;28;20142;-60
2021/09/21 09:57:11;;;;;;;4.25;2.38;;;20.40;76.20;;;;;;4970288;28;20033;-58
2021/09/21 09:59:38;;;;;;;4.15;2.20;;;20.40;78.70;;;;;;4975532;28;20034;-58
2021/09/21 10:02:04;;;;;;;4.03;2.80;;;20.50;77.10;;;;;;4965695;28;20117;-60
2021/09/21 10:04:30;;;;;;;4.88;2.03;;;20.70;74.90;;;;;;4974015;28;20581;-57
2021/09/21 10:06:56;;;;;;;6.15;2.30;;;20.80;73.50;;;;;;4966681;28;20053;-58
2021/09/21 10:09:22;;;;;;;4.43;1.92;;;20.70;75.80;;;;;;4973242;28;20038;-58
2021/09/21 10:11:52;;;;;;;3.38;2.28;;;21.00;74.10;;;;;;4968046;28;20038;-60
2021/09/21 10:14:20;;;;;;;4.10;1.88;;;20.80;71.40;;;;;;4972265;28;20018;-61
2021/09/21 10:16:53;;;;;;;6.20;2.53;;;20.50;72.40;;;;;;4970893;28;20023;-57
2021/09/21 10:19:24;;;;;;;3.20;2.00;;;20.60;74.30;;;;;;4971939;28;20023;-57
2021/09/21 10:21:53;;;;;;;5.18;1.90;;;20.10;74.10;;;;;;4978839;28;20035;-59
2021/09/21 10:24:34;;;;;;;7.22;2.38;;;20.00;75.90;;;;;;4955366;28;20133;-59
2021/09/21 10:27:09;;;;;;;2.70;1.88;;;19.50;77.70;;;;;;4966410;28;20089;-57
2021/09/21 10:29:35;;;;;;;3.75;2.40;;;19.40;76.40;;;;;;4970275;28;20023;-53
2021/09/21 10:32:07;;;;;;;6.20;2.55;;;18.90;80.60;;;;;;4967715;28;20023;-58
2021/09/21 10:34:42;;;;;;;3.03;2.43;;;19.10;75.80;;;;;;4969533;28;20054;-59
2021/09/21 10:37:08;;;;;;;3.33;2.45;;;19.20;76.60;;;;;;4965393;28;20027;-59
2021/09/21 10:39:33;;;;;;;3.25;2.20;;;19.00;76.50;;;;;;4965520;28;20034;-56
2021/09/21 10:42:02;;;;;;;4.75;2.13;;;18.70;77.50;;;;;;4968910;28;20389;-54
2021/09/21 10:44:28;;;;;;;3.10;2.20;;;18.80;79.50;;;;;;4951873;28;20106;-50
2021/09/21 10:47:00;;;;;;;3.08;2.10;;;19.00;78.50;;;;;;4944774;28;20031;-54
2021/09/21 10:49:30;;;;;;;3.58;2.50;;;18.80;77.40;;;;;;4964861;28;20035;-58
2021/09/21 10:52:08;;;;;;;6.25;2.35;;;19.00;78.70;;;;;;4966291;28;20035;-59
2021/09/21 10:54:57;;;;;;;3.33;2.25;;;19.30;80.00;;;;;;4966807;28;20553;-60
2021/09/21 10:57:29;;;;;;;3.78;2.53;;;19.10;78.20;;;;;;4967556;28;20042;-59
2021/09/21 10:59:58;;;;;;;5.37;2.37;;;19.20;77.30;;;;;;4969084;28;20027;-57
2021/09/21 11:02:29;;;;;;;3.10;1.95;;;19.10;80.20;;;;;;4963063;28;20271;-57
2021/09/21 11:04:55;;;;;;;3.15;2.35;;;19.10;78.00;;;;;;4971794;28;20031;-57
2021/09/21 11:07:20;;;;;;;6.63;2.80;;;18.80;79.70;;;;;;4972066;28;20026;-58
2021/09/21 11:09:51;;;;;;;3.88;2.45;;;18.70;77.70;;;;;;4972786;28;20039;-54
2021/09/21 11:12:19;;;;;;;3.83;2.30;;;18.70;78.40;;;;;;4971996;28;20038;-59
2021/09/21 11:14:47;;;;;;;4.00;2.35;;;18.50;80.20;;;;;;4967086;28;20402;-58
2021/09/21 11:17:13;;;;;;;6.43;2.90;;;18.60;80.40;;;;;;4969334;28;20035;-55
2021/09/21 11:19:40;;;;;;;2.88;2.33;;;18.60;80.50;;;;;;4964839;28;20034;-60
2021/09/21 11:22:09;;;;;;;3.55;2.38;;;18.60;81.30;;;;;;4967384;28;20133;-60
2021/09/21 11:24:37;;;;;;;7.22;2.78;;;18.90;79.40;;;;;;4957903;28;20505;-55
2021/09/21 11:27:10;;;;;;;4.25;2.58;;;19.00;79.30;;;;;;4966204;28;20111;-57
2021/09/21 11:29:40;;;;;;;2.78;1.98;;;19.20;78.00;;;;;;4961716;28;20089;-57
2021/09/21 11:32:22;;;;;;;9.00;2.47;;;19.00;80.20;;;;;;4970061;28;20486;-58
2021/09/21 11:35:09;;;;;;;4.43;2.50;;;19.00;77.60;;;;;;4967407;28;20023;-59
2021/09/21 11:37:36;;;;;;;5.07;2.50;;;19.30;79.30;;;;;;4961407;28;20102;-59
2021/09/21 11:40:02;;;;;;;5.07;2.45;;;19.30;81.60;;;;;;4964252;28;20027;-57
2021/09/21 11:42:31;;;;;;;3.95;2.30;;;19.20;81.90;;;;;;4971480;28;20033;-57
2021/09/21 11:45:09;;;;;;;7.70;2.63;;;19.10;80.60;;;;;;4965056;28;20042;-59
2021/09/21 11:47:44;;;;;;;5.68;3.00;;;19.10;81.60;;;;;;4964155;28;20132;-55
2021/09/21 11:50:18;;;;;;;3.47;2.35;;;19.20;80.70;;;;;;4963467;28;20026;-59
2021/09/21 11:52:52;;;;;;;3.80;2.25;;;19.20;79.80;;;;;;4969299;28;20027;-60
2021/09/21 11:55:21;;;;;;;2.83;2.20;;;19.30;78.40;;;;;;4966894;28;20106;-60
2021/09/21 11:57:48;;;;;;;3.17;2.50;;;19.30;79.30;;;;;;4969314;28;20038;-59
2021/09/21 12:00:34;;;;;;;4.15;1.95;;;19.40;78.50;;;;;;4964457;28;20097;-56
2021/09/21 12:03:07;;;;;;;3.08;2.20;;;19.70;76.90;;;;;;4969131;28;20027;-59
2021/09/21 12:05:35;;;;;;;4.38;1.77;;;19.70;75.50;;;;;;4963982;28;20030;-53
2021/09/21 12:08:12;;;;;;;3.83;2.00;;;19.60;74.60;;;;;;4965608;28;20070;-57
2021/09/21 12:10:39;;;;;;;6.13;2.97;;;19.70;75.10;;;;;;4965165;28;20110;-58
2021/09/21 12:13:07;;;;;;;8.20;2.72;;;19.50;76.80;;;;;;4967453;28;20027;-58
2021/09/21 12:15:34;;;;;;;6.75;2.83;;;19.20;77.60;;;;;;4966160;28;20438;-60
2021/09/21 12:18:03;;;;;;;5.00;2.42;;;19.20;74.70;;;;;;4958667;28;20069;-60
2021/09/21 12:20:29;;;;;;;9.10;5.53;;;19.10;78.10;;;;;;4964539;28;20026;-55
2021/09/21 12:22:55;;;;;;;7.05;2.80;;;19.30;78.20;;;;;;4947687;28;20031;-53
2021/09/21 12:25:22;;;;;;;3.72;2.53;;;19.30;77.60;;;;;;4969170;28;20030;-59
2021/09/21 12:27:53;;;;;;;5.72;2.60;;;19.50;77.20;;;;;;4967498;28;20490;-61
2021/09/21 12:30:22;;;;;;;12.38;4.18;;;19.30;76.10;;;;;;4966760;28;20117;-59
2021/09/21 12:32:59;;;;;;;6.90;2.40;;;19.40;76.80;;;;;;4963950;28;20446;-57
2021/09/21 12:35:28;;;;;;;10.80;2.58;;;19.40;77.50;;;;;;4965137;28;20027;-61
2021/09/21 12:38:05;;;;;;;4.85;2.42;;;19.40;77.90;;;;;;4963750;28;20510;-61
2021/09/21 12:40:31;;;;;;;2.40;2.05;;;19.10;76.80;;;;;;4970631;28;20427;-58
2021/09/21 12:43:00;;;;;;;5.53;2.40;;;19.10;78.00;;;;;;4971707;28;20073;-59
2021/09/21 12:45:26;;;;;;;3.65;2.80;;;18.90;78.60;;;;;;4962314;28;20031;-59
2021/09/21 12:47:51;;;;;;;5.10;2.38;;;18.70;80.40;;;;;;4961966;28;20513;-57
2021/09/21 12:50:21;;;;;;;4.43;2.28;;;18.80;79.80;;;;;;4965756;28;20031;-57
2021/09/21 12:52:55;;;;;;;2.72;2.30;;;18.40;80.50;;;;;;4962983;28;20051;-57
2021/09/21 12:55:35;;;;;;;7.57;2.92;;;18.60;79.00;;;;;;4957616;28;20026;-60
2021/09/21 12:58:02;;;;;;;3.65;2.20;;;18.50;81.20;;;;;;4960761;28;20031;-58